sensor_id;sensor_type;location;lat;lon;timestamp;temperature;humidity
23291;DHT22;11814;44.686;10.842;2023-04-23T00:00:16;15.30;99.90
23291;DHT22;11814;44.686;10.842;2023-04-23T00:02:47;15.30;99.90
23291;DHT22;11814;44.686;10.842;2023-04-23T00:05:17;15.20;99.90
23291;DHT22;11814;44.686;10.842;2023-04-23T00:07:44;15.20;99.90
23291;DHT22;11814;44.686;10.842;2023-04-23T00:10:10;15.10;99.90
23291;DHT22;11814;44.686;10.842;2023-04-23T00:12:37;15.00;99.90
23291;DHT22;11814;44.686;10.842;2023-04-23T00:15:03;15.00;99.90
23291;DHT22;11814;44.686;10.842;2023-04-23T00:17:29;14.90;99.90
23291;DHT22;11814;44.686;10.842;2023-04-23T00:19:55;14.90;99.90
23291;DHT22;11814;44.686;10.842;2023-04-23T00:22:21;14.90;99.90
23291;DHT22;11814;44.686;10.842;2023-04-23T00:24:47;14.90;99.90
23291;DHT22;11814;44.686;10.842;2023-04-23T00:27:12;14.80;99.90
23291;DHT22;11814;44.686;10.842;2023-04-23T00:29:38;14.80;99.90
23291;DHT22;11814;44.686;10.842;2023-04-23T00:32:05;14.80;99.90
23291;DHT22;11814;44.686;10.842;2023-04-23T00:34:31;14.80;99.90
23291;DHT22;11814;44.686;10.842;2023-04-23T00:36:57;14.90;99.90
23291;DHT22;11814;44.686;10.842;2023-04-23T00:39:23;14.80;99.90
23291;DHT22;11814;44.686;10.842;2023-04-23T00:41:48;14.90;99.90
23291;DHT22;11814;44.686;10.842;2023-04-23T00:44:14;14.90;99.90
23291;DHT22;11814;44.686;10.842;2023-04-23T00:46:41;14.90;99.90
23291;DHT22;11814;44.686;10.842;2023-04-23T00:49:06;14.90;99.90
23291;DHT22;11814;44.686;10.842;2023-04-23T00:51:33;14.90;99.90
23291;DHT22;11814;44.686;10.842;2023-04-23T00:53:58;14.80;99.90
23291;DHT22;11814;44.686;10.842;2023-04-23T00:56:25;14.80;99.90
23291;DHT22;11814;44.686;10.842;2023-04-23T00:58:52;14.70;99.90
23291;DHT22;11814;44.686;10.842;2023-04-23T01:01:19;14.70;99.90
23291;DHT22;11814;44.686;10.842;2023-04-23T01:03:47;14.70;99.90
23291;DHT22;11814;44.686;10.842;2023-04-23T01:06:16;14.70;99.90
23291;DHT22;11814;44.686;10.842;2023-04-23T01:08:43;14.70;99.90
23291;DHT22;11814;44.686;10.842;2023-04-23T01:11:12;14.70;99.90
23291;DHT22;11814;44.686;10.842;2023-04-23T01:13:39;14.60;99.90
23291;DHT22;11814;44.686;10.842;2023-04-23T01:16:06;14.60;99.90
23291;DHT22;11814;44.686;10.842;2023-04-23T01:18:32;14.60;99.90
23291;DHT22;11814;44.686;10.842;2023-04-23T01:20:58;14.50;99.90
23291;DHT22;11814;44.686;10.842;2023-04-23T01:23:24;14.60;99.90
23291;DHT22;11814;44.686;10.842;2023-04-23T01:25:52;14.50;99.90
23291;DHT22;11814;44.686;10.842;2023-04-23T01:28:18;14.50;99.90
23291;DHT22;11814;44.686;10.842;2023-04-23T01:30:44;14.40;99.90
23291;DHT22;11814;44.686;10.842;2023-04-23T01:33:11;14.30;99.90
23291;DHT22;11814;44.686;10.842;2023-04-23T01:35:38;14.30;99.90
23291;DHT22;11814;44.686;10.842;2023-04-23T01:38:07;14.30;99.90
23291;DHT22;11814;44.686;10.842;2023-04-23T01:40:33;14.30;99.90
23291;DHT22;11814;44.686;10.842;2023-04-23T01:42:59;14.30;99.90
23291;DHT22;11814;44.686;10.842;2023-04-23T01:45:25;14.30;99.90
23291;DHT22;11814;44.686;10.842;2023-04-23T01:47:51;14.30;99.90
23291;DHT22;11814;44.686;10.842;2023-04-23T01:50:17;14.40;99.90
23291;DHT22;11814;44.686;10.842;2023-04-23T01:52:43;14.30;99.90
23291;DHT22;11814;44.686;10.842;2023-04-23T01:55:10;14.40;99.90
23291;DHT22;11814;44.686;10.842;2023-04-23T01:57:36;14.40;99.90
23291;DHT22;11814;44.686;10.842;2023-04-23T02:00:05;14.40;99.90
23291;DHT22;11814;44.686;10.842;2023-04-23T02:02:35;14.40;99.90
23291;DHT22;11814;44.686;10.842;2023-04-23T02:05:02;14.50;99.90
23291;DHT22;11814;44.686;10.842;2023-04-23T02:07:32;14.40;99.90
23291;DHT22;11814;44.686;10.842;2023-04-23T02:09:59;14.40;99.90
23291;DHT22;11814;44.686;10.842;2023-04-23T02:12:25;14.40;99.90
23291;DHT22;11814;44.686;10.842;2023-04-23T02:14:52;14.30;99.90
23291;DHT22;11814;44.686;10.842;2023-04-23T02:17:19;14.30;99.90
23291;DHT22;11814;44.686;10.842;2023-04-23T02:19:46;14.20;99.90
23291;DHT22;11814;44.686;10.842;2023-04-23T02:22:11;14.20;99.90
23291;DHT22;11814;44.686;10.842;2023-04-23T02:24:37;14.20;99.90
23291;DHT22;11814;44.686;10.842;2023-04-23T02:27:03;14.20;99.90
23291;DHT22;11814;44.686;10.842;2023-04-23T02:29:29;14.20;99.90
23291;DHT22;11814;44.686;10.842;2023-04-23T02:31:55;14.30;99.90
23291;DHT22;11814;44.686;10.842;2023-04-23T02:34:21;14.20;99.90
23291;DHT22;11814;44.686;10.842;2023-04-23T02:36:46;14.20;99.90
23291;DHT22;11814;44.686;10.842;2023-04-23T02:39:12;14.20;99.90
23291;DHT22;11814;44.686;10.842;2023-04-23T02:41:38;14.20;99.90
23291;DHT22;11814;44.686;10.842;2023-04-23T02:44:03;14.20;99.90
23291;DHT22;11814;44.686;10.842;2023-04-23T02:46:29;14.20;99.90
23291;DHT22;11814;44.686;10.842;2023-04-23T02:48:56;14.20;99.90
23291;DHT22;11814;44.686;10.842;2023-04-23T02:51:22;14.10;99.90
23291;DHT22;11814;44.686;10.842;2023-04-23T02:53:47;14.10;99.90
23291;DHT22;11814;44.686;10.842;2023-04-23T02:56:13;14.20;99.90
23291;DHT22;11814;44.686;10.842;2023-04-23T02:58:39;14.20;99.90
23291;DHT22;11814;44.686;10.842;2023-04-23T03:01:05;14.20;99.90
23291;DHT22;11814;44.686;10.842;2023-04-23T03:03:31;14.20;99.90
23291;DHT22;11814;44.686;10.842;2023-04-23T03:05:59;14.30;99.90
23291;DHT22;11814;44.686;10.842;2023-04-23T03:08:25;14.30;99.90
23291;DHT22;11814;44.686;10.842;2023-04-23T03:10:51;14.30;99.90
23291;DHT22;11814;44.686;10.842;2023-04-23T03:13:16;14.30;99.90
23291;DHT22;11814;44.686;10.842;2023-04-23T03:15:42;14.30;99.90
23291;DHT22;11814;44.686;10.842;2023-04-23T03:18:08;14.20;99.90
23291;DHT22;11814;44.686;10.842;2023-04-23T03:20:34;14.20;99.90
23291;DHT22;11814;44.686;10.842;2023-04-23T03:23:00;14.10;99.90
23291;DHT22;11814;44.686;10.842;2023-04-23T03:25:26;14.10;99.90
23291;DHT22;11814;44.686;10.842;2023-04-23T03:27:52;14.10;99.90
23291;DHT22;11814;44.686;10.842;2023-04-23T03:30:19;14.10;99.90
23291;DHT22;11814;44.686;10.842;2023-04-23T03:32:45;14.00;99.90
23291;DHT22;11814;44.686;10.842;2023-04-23T03:35:10;14.00;99.90
23291;DHT22;11814;44.686;10.842;2023-04-23T03:37:36;14.00;99.90
23291;DHT22;11814;44.686;10.842;2023-04-23T03:40:02;13.90;99.90
23291;DHT22;11814;44.686;10.842;2023-04-23T03:42:32;13.80;99.90
23291;DHT22;11814;44.686;10.842;2023-04-23T03:44:59;13.80;99.90
23291;DHT22;11814;44.686;10.842;2023-04-23T03:47:25;13.80;99.90
23291;DHT22;11814;44.686;10.842;2023-04-23T03:49:51;13.70;99.90
23291;DHT22;11814;44.686;10.842;2023-04-23T03:52:17;13.70;99.90
23291;DHT22;11814;44.686;10.842;2023-04-23T03:54:43;13.70;99.90
23291;DHT22;11814;44.686;10.842;2023-04-23T03:57:09;13.60;99.90
23291;DHT22;11814;44.686;10.842;2023-04-23T03:59:36;13.60;99.90
23291;DHT22;11814;44.686;10.842;2023-04-23T04:02:02;13.50;99.90
23291;DHT22;11814;44.686;10.842;2023-04-23T04:04:29;13.50;99.90
23291;DHT22;11814;44.686;10.842;2023-04-23T04:06:55;13.60;99.90
23291;DHT22;11814;44.686;10.842;2023-04-23T04:09:21;13.50;99.90
23291;DHT22;11814;44.686;10.842;2023-04-23T04:11:47;13.50;99.90
23291;DHT22;11814;44.686;10.842;2023-04-23T04:14:13;13.50;99.90
23291;DHT22;11814;44.686;10.842;2023-04-23T04:16:39;13.50;99.90
23291;DHT22;11814;44.686;10.842;2023-04-23T04:19:05;13.50;99.90
23291;DHT22;11814;44.686;10.842;2023-04-23T04:21:31;13.40;99.90
23291;DHT22;11814;44.686;10.842;2023-04-23T04:23:58;13.40;99.90
23291;DHT22;11814;44.686;10.842;2023-04-23T04:26:26;13.40;99.90
23291;DHT22;11814;44.686;10.842;2023-04-23T04:28:52;13.40;99.90
23291;DHT22;11814;44.686;10.842;2023-04-23T04:31:18;13.40;99.90
23291;DHT22;11814;44.686;10.842;2023-04-23T04:33:47;13.30;99.90
23291;DHT22;11814;44.686;10.842;2023-04-23T04:36:13;13.30;99.90
23291;DHT22;11814;44.686;10.842;2023-04-23T04:38:39;13.30;99.90
23291;DHT22;11814;44.686;10.842;2023-04-23T04:41:06;13.30;99.90
23291;DHT22;11814;44.686;10.842;2023-04-23T04:43:32;13.30;99.90
23291;DHT22;11814;44.686;10.842;2023-04-23T04:45:59;13.30;99.90
23291;DHT22;11814;44.686;10.842;2023-04-23T04:48:25;13.40;99.90
23291;DHT22;11814;44.686;10.842;2023-04-23T04:50:50;13.40;99.90
23291;DHT22;11814;44.686;10.842;2023-04-23T04:53:16;13.30;99.90
23291;DHT22;11814;44.686;10.842;2023-04-23T04:55:42;13.40;99.90
23291;DHT22;11814;44.686;10.842;2023-04-23T04:58:08;13.40;99.90
23291;DHT22;11814;44.686;10.842;2023-04-23T05:00:33;13.50;99.90
23291;DHT22;11814;44.686;10.842;2023-04-23T05:02:59;13.50;99.90
23291;DHT22;11814;44.686;10.842;2023-04-23T05:05:26;13.50;99.90
23291;DHT22;11814;44.686;10.842;2023-04-23T05:07:52;13.50;99.90
23291;DHT22;11814;44.686;10.842;2023-04-23T05:10:24;13.50;99.90
23291;DHT22;11814;44.686;10.842;2023-04-23T05:12:50;13.60;99.90
23291;DHT22;11814;44.686;10.842;2023-04-23T05:15:16;13.60;99.90
23291;DHT22;11814;44.686;10.842;2023-04-23T05:17:42;13.70;99.90
23291;DHT22;11814;44.686;10.842;2023-04-23T05:20:09;13.80;99.90
23291;DHT22;11814;44.686;10.842;2023-04-23T05:22:39;13.90;99.90
23291;DHT22;11814;44.686;10.842;2023-04-23T05:25:06;14.00;99.90
23291;DHT22;11814;44.686;10.842;2023-04-23T05:27:33;14.10;99.90
23291;DHT22;11814;44.686;10.842;2023-04-23T05:30:03;14.40;99.90
23291;DHT22;11814;44.686;10.842;2023-04-23T05:32:29;14.80;99.90
23291;DHT22;11814;44.686;10.842;2023-04-23T05:34:55;15.40;99.90
23291;DHT22;11814;44.686;10.842;2023-04-23T05:37:21;15.60;99.90
23291;DHT22;11814;44.686;10.842;2023-04-23T05:39:47;15.60;99.90
23291;DHT22;11814;44.686;10.842;2023-04-23T05:42:13;15.60;99.90
23291;DHT22;11814;44.686;10.842;2023-04-23T05:44:38;15.70;99.90
23291;DHT22;11814;44.686;10.842;2023-04-23T05:47:06;16.20;99.90
23291;DHT22;11814;44.686;10.842;2023-04-23T05:49:33;16.50;99.90
23291;DHT22;11814;44.686;10.842;2023-04-23T05:52:00;16.60;99.90
23291;DHT22;11814;44.686;10.842;2023-04-23T05:54:27;16.70;99.90
23291;DHT22;11814;44.686;10.842;2023-04-23T05:56:53;16.80;99.90
23291;DHT22;11814;44.686;10.842;2023-04-23T05:59:19;16.80;99.90
23291;DHT22;11814;44.686;10.842;2023-04-23T06:01:45;16.70;99.90
23291;DHT22;11814;44.686;10.842;2023-04-23T06:04:12;16.60;99.90
23291;DHT22;11814;44.686;10.842;2023-04-23T06:06:38;16.60;99.90
23291;DHT22;11814;44.686;10.842;2023-04-23T06:09:04;16.50;99.90
23291;DHT22;11814;44.686;10.842;2023-04-23T06:11:30;16.40;99.90
23291;DHT22;11814;44.686;10.842;2023-04-23T06:13:57;16.70;99.90
23291;DHT22;11814;44.686;10.842;2023-04-23T06:16:23;17.30;99.90
23291;DHT22;11814;44.686;10.842;2023-04-23T06:18:49;17.80;99.90
23291;DHT22;11814;44.686;10.842;2023-04-23T06:21:15;18.20;99.90
23291;DHT22;11814;44.686;10.842;2023-04-23T06:23:41;18.50;99.00
23291;DHT22;11814;44.686;10.842;2023-04-23T06:26:07;18.80;98.10
23291;DHT22;11814;44.686;10.842;2023-04-23T06:28:33;19.00;97.00
23291;DHT22;11814;44.686;10.842;2023-04-23T06:30:58;19.40;95.70
23291;DHT22;11814;44.686;10.842;2023-04-23T06:33:24;19.40;94.30
23291;DHT22;11814;44.686;10.842;2023-04-23T06:35:50;19.50;94.00
23291;DHT22;11814;44.686;10.842;2023-04-23T06:38:16;19.30;93.80
23291;DHT22;11814;44.686;10.842;2023-04-23T06:40:43;19.10;93.70
23291;DHT22;11814;44.686;10.842;2023-04-23T06:43:09;18.90;94.30
23291;DHT22;11814;44.686;10.842;2023-04-23T06:45:35;19.00;95.10
23291;DHT22;11814;44.686;10.842;2023-04-23T06:48:01;19.30;95.50
23291;DHT22;11814;44.686;10.842;2023-04-23T06:50:26;19.50;95.40
23291;DHT22;11814;44.686;10.842;2023-04-23T06:52:53;19.40;95.00
23291;DHT22;11814;44.686;10.842;2023-04-23T06:55:18;19.30;94.90
23291;DHT22;11814;44.686;10.842;2023-04-23T06:57:46;19.30;95.20
23291;DHT22;11814;44.686;10.842;2023-04-23T07:00:12;19.30;95.20
23291;DHT22;11814;44.686;10.842;2023-04-23T07:02:38;19.30;94.90
23291;DHT22;11814;44.686;10.842;2023-04-23T07:05:04;19.30;94.80
23291;DHT22;11814;44.686;10.842;2023-04-23T07:07:30;19.40;94.90
23291;DHT22;11814;44.686;10.842;2023-04-23T07:09:55;19.60;94.80
23291;DHT22;11814;44.686;10.842;2023-04-23T07:12:21;19.80;94.70
23291;DHT22;11814;44.686;10.842;2023-04-23T07:14:47;19.80;94.20
23291;DHT22;11814;44.686;10.842;2023-04-23T07:17:12;19.70;94.10
23291;DHT22;11814;44.686;10.842;2023-04-23T07:19:38;19.60;94.40
23291;DHT22;11814;44.686;10.842;2023-04-23T07:22:04;19.60;94.90
23291;DHT22;11814;44.686;10.842;2023-04-23T07:24:30;19.80;95.00
23291;DHT22;11814;44.686;10.842;2023-04-23T07:26:56;20.20;94.90
23291;DHT22;11814;44.686;10.842;2023-04-23T07:29:21;20.60;94.60
23291;DHT22;11814;44.686;10.842;2023-04-23T07:31:47;21.00;93.90
23291;DHT22;11814;44.686;10.842;2023-04-23T07:34:13;21.60;92.20
23291;DHT22;11814;44.686;10.842;2023-04-23T07:36:39;21.80;91.10
23291;DHT22;11814;44.686;10.842;2023-04-23T07:39:05;21.90;90.50
23291;DHT22;11814;44.686;10.842;2023-04-23T07:41:31;21.80;88.60
23291;DHT22;11814;44.686;10.842;2023-04-23T07:43:57;21.70;86.70
23291;DHT22;11814;44.686;10.842;2023-04-23T07:46:23;21.50;85.30
23291;DHT22;11814;44.686;10.842;2023-04-23T07:48:49;21.40;84.30
23291;DHT22;11814;44.686;10.842;2023-04-23T07:51:14;21.30;83.60
23291;DHT22;11814;44.686;10.842;2023-04-23T07:53:40;21.30;83.50
23291;DHT22;11814;44.686;10.842;2023-04-23T07:56:06;21.40;84.10
23291;DHT22;11814;44.686;10.842;2023-04-23T07:58:32;21.90;83.40
23291;DHT22;11814;44.686;10.842;2023-04-23T08:00:58;22.60;80.70
23291;DHT22;11814;44.686;10.842;2023-04-23T08:03:24;23.00;77.70
23291;DHT22;11814;44.686;10.842;2023-04-23T08:05:50;23.20;75.90
23291;DHT22;11814;44.686;10.842;2023-04-23T08:08:15;23.20;74.20
23291;DHT22;11814;44.686;10.842;2023-04-23T08:10:41;23.00;72.40
23291;DHT22;11814;44.686;10.842;2023-04-23T08:13:07;23.00;71.70
23291;DHT22;11814;44.686;10.842;2023-04-23T08:15:33;22.80;71.80
23291;DHT22;11814;44.686;10.842;2023-04-23T08:17:58;22.70;71.20
23291;DHT22;11814;44.686;10.842;2023-04-23T08:20:24;22.50;71.20
23291;DHT22;11814;44.686;10.842;2023-04-23T08:22:50;22.40;71.70
23291;DHT22;11814;44.686;10.842;2023-04-23T08:25:18;22.40;71.60
23291;DHT22;11814;44.686;10.842;2023-04-23T08:27:45;22.40;71.40
23291;DHT22;11814;44.686;10.842;2023-04-23T08:30:11;22.40;71.00
23291;DHT22;11814;44.686;10.842;2023-04-23T08:32:38;22.20;70.60
23291;DHT22;11814;44.686;10.842;2023-04-23T08:35:05;22.20;70.80
23291;DHT22;11814;44.686;10.842;2023-04-23T08:37:32;22.30;71.80
23291;DHT22;11814;44.686;10.842;2023-04-23T08:39:59;22.50;70.80
23291;DHT22;11814;44.686;10.842;2023-04-23T08:45:10;22.70;69.40
23291;DHT22;11814;44.686;10.842;2023-04-23T08:47:39;22.70;69.10
23291;DHT22;11814;44.686;10.842;2023-04-23T08:50:09;22.70;69.00
23291;DHT22;11814;44.686;10.842;2023-04-23T08:52:39;22.70;69.50
23291;DHT22;11814;44.686;10.842;2023-04-23T08:55:07;22.70;70.00
23291;DHT22;11814;44.686;10.842;2023-04-23T08:57:38;22.80;69.40
23291;DHT22;11814;44.686;10.842;2023-04-23T09:00:08;22.80;68.10
23291;DHT22;11814;44.686;10.842;2023-04-23T09:02:36;22.80;66.80
23291;DHT22;11814;44.686;10.842;2023-04-23T09:05:03;22.70;66.00
23291;DHT22;11814;44.686;10.842;2023-04-23T09:07:29;22.70;65.70
23291;DHT22;11814;44.686;10.842;2023-04-23T09:09:55;22.80;65.70
23291;DHT22;11814;44.686;10.842;2023-04-23T09:12:21;22.80;65.50
23291;DHT22;11814;44.686;10.842;2023-04-23T09:14:49;22.90;65.40
23291;DHT22;11814;44.686;10.842;2023-04-23T09:17:16;22.90;65.20
23291;DHT22;11814;44.686;10.842;2023-04-23T09:19:44;22.90;65.60
23291;DHT22;11814;44.686;10.842;2023-04-23T09:22:11;23.00;66.00
23291;DHT22;11814;44.686;10.842;2023-04-23T09:24:40;23.00;66.20
23291;DHT22;11814;44.686;10.842;2023-04-23T09:27:08;23.00;66.30
23291;DHT22;11814;44.686;10.842;2023-04-23T09:29:34;23.00;66.70
23291;DHT22;11814;44.686;10.842;2023-04-23T09:32:08;23.00;67.20
23291;DHT22;11814;44.686;10.842;2023-04-23T09:34:35;23.10;67.10
23291;DHT22;11814;44.686;10.842;2023-04-23T09:37:05;23.10;67.30
23291;DHT22;11814;44.686;10.842;2023-04-23T09:39:35;23.10;67.50
23291;DHT22;11814;44.686;10.842;2023-04-23T09:42:04;23.30;67.50
23291;DHT22;11814;44.686;10.842;2023-04-23T09:44:33;23.30;67.70
23291;DHT22;11814;44.686;10.842;2023-04-23T09:47:06;23.30;67.80
23291;DHT22;11814;44.686;10.842;2023-04-23T09:49:46;23.30;67.60
23291;DHT22;11814;44.686;10.842;2023-04-23T09:52:12;23.30;67.80
23291;DHT22;11814;44.686;10.842;2023-04-23T09:54:38;23.20;67.60
23291;DHT22;11814;44.686;10.842;2023-04-23T09:57:04;23.20;67.80
23291;DHT22;11814;44.686;10.842;2023-04-23T09:59:34;23.20;68.00
23291;DHT22;11814;44.686;10.842;2023-04-23T10:02:04;23.30;67.50
23291;DHT22;11814;44.686;10.842;2023-04-23T10:04:31;23.30;67.90
23291;DHT22;11814;44.686;10.842;2023-04-23T10:06:59;23.40;68.40
23291;DHT22;11814;44.686;10.842;2023-04-23T10:09:27;23.50;68.00
23291;DHT22;11814;44.686;10.842;2023-04-23T10:11:55;23.50;67.80
23291;DHT22;11814;44.686;10.842;2023-04-23T10:14:22;23.60;67.50
23291;DHT22;11814;44.686;10.842;2023-04-23T10:16:50;23.60;67.30
23291;DHT22;11814;44.686;10.842;2023-04-23T10:19:21;23.70;67.20
23291;DHT22;11814;44.686;10.842;2023-04-23T10:22:08;23.70;66.90
23291;DHT22;11814;44.686;10.842;2023-04-23T10:24:38;23.80;67.00
23291;DHT22;11814;44.686;10.842;2023-04-23T10:27:09;23.90;66.50
23291;DHT22;11814;44.686;10.842;2023-04-23T10:29:35;23.90;65.90
23291;DHT22;11814;44.686;10.842;2023-04-23T10:32:03;23.90;65.60
23291;DHT22;11814;44.686;10.842;2023-04-23T10:34:30;23.90;65.50
23291;DHT22;11814;44.686;10.842;2023-04-23T10:36:57;23.80;64.80
23291;DHT22;11814;44.686;10.842;2023-04-23T10:39:31;23.70;64.80
23291;DHT22;11814;44.686;10.842;2023-04-23T10:41:58;23.70;65.00
23291;DHT22;11814;44.686;10.842;2023-04-23T10:44:37;23.80;64.80
23291;DHT22;11814;44.686;10.842;2023-04-23T10:47:04;23.90;64.50
23291;DHT22;11814;44.686;10.842;2023-04-23T10:49:31;24.00;65.20
23291;DHT22;11814;44.686;10.842;2023-04-23T10:51:59;24.10;65.10
23291;DHT22;11814;44.686;10.842;2023-04-23T10:54:30;24.10;65.00
23291;DHT22;11814;44.686;10.842;2023-04-23T10:59:28;24.10;63.60
23291;DHT22;11814;44.686;10.842;2023-04-23T11:01:56;24.20;63.20
23291;DHT22;11814;44.686;10.842;2023-04-23T11:04:26;24.30;63.10
23291;DHT22;11814;44.686;10.842;2023-04-23T11:06:55;24.40;63.40
23291;DHT22;11814;44.686;10.842;2023-04-23T11:11:59;24.60;63.00
23291;DHT22;11814;44.686;10.842;2023-04-23T11:14:55;24.70;62.60
23291;DHT22;11814;44.686;10.842;2023-04-23T11:20:19;24.80;63.30
23291;DHT22;11814;44.686;10.842;2023-04-23T11:22:46;24.90;62.90
23291;DHT22;11814;44.686;10.842;2023-04-23T11:25:19;24.90;63.40
23291;DHT22;11814;44.686;10.842;2023-04-23T11:27:47;24.80;64.00
23291;DHT22;11814;44.686;10.842;2023-04-23T11:30:16;24.70;64.20
23291;DHT22;11814;44.686;10.842;2023-04-23T11:32:47;24.70;64.90
23291;DHT22;11814;44.686;10.842;2023-04-23T11:35:18;24.70;65.30
23291;DHT22;11814;44.686;10.842;2023-04-23T11:37:45;24.70;65.20
23291;DHT22;11814;44.686;10.842;2023-04-23T11:40:16;24.60;65.10
23291;DHT22;11814;44.686;10.842;2023-04-23T11:42:47;24.60;65.20
23291;DHT22;11814;44.686;10.842;2023-04-23T11:45:28;24.50;65.00
23291;DHT22;11814;44.686;10.842;2023-04-23T11:47:55;24.60;65.10
23291;DHT22;11814;44.686;10.842;2023-04-23T11:50:30;24.70;64.90
23291;DHT22;11814;44.686;10.842;2023-04-23T11:53:08;24.60;64.80
23291;DHT22;11814;44.686;10.842;2023-04-23T11:55:34;24.70;65.30
23291;DHT22;11814;44.686;10.842;2023-04-23T11:58:01;24.70;65.20
23291;DHT22;11814;44.686;10.842;2023-04-23T12:00:27;24.80;65.50
23291;DHT22;11814;44.686;10.842;2023-04-23T12:03:01;24.80;65.70
23291;DHT22;11814;44.686;10.842;2023-04-23T12:05:28;24.90;65.50
23291;DHT22;11814;44.686;10.842;2023-04-23T12:10:31;24.90;65.50
23291;DHT22;11814;44.686;10.842;2023-04-23T12:12:57;25.00;65.40
23291;DHT22;11814;44.686;10.842;2023-04-23T12:15:23;25.00;64.50
23291;DHT22;11814;44.686;10.842;2023-04-23T12:17:49;25.00;63.60
23291;DHT22;11814;44.686;10.842;2023-04-23T12:20:20;25.00;62.70
23291;DHT22;11814;44.686;10.842;2023-04-23T12:22:47;25.00;62.10
23291;DHT22;11814;44.686;10.842;2023-04-23T12:25:13;25.10;61.30
23291;DHT22;11814;44.686;10.842;2023-04-23T12:27:40;25.10;60.80
23291;DHT22;11814;44.686;10.842;2023-04-23T12:30:08;25.10;60.90
23291;DHT22;11814;44.686;10.842;2023-04-23T12:32:34;25.10;60.70
23291;DHT22;11814;44.686;10.842;2023-04-23T12:35:00;25.20;60.70
23291;DHT22;11814;44.686;10.842;2023-04-23T12:37:28;25.20;61.20
23291;DHT22;11814;44.686;10.842;2023-04-23T12:39:54;25.20;61.70
23291;DHT22;11814;44.686;10.842;2023-04-23T12:42:22;25.20;61.70
23291;DHT22;11814;44.686;10.842;2023-04-23T12:44:48;25.30;61.90
23291;DHT22;11814;44.686;10.842;2023-04-23T12:47:16;25.10;60.90
23291;DHT22;11814;44.686;10.842;2023-04-23T12:49:45;25.10;61.50
23291;DHT22;11814;44.686;10.842;2023-04-23T12:52:11;25.10;61.70
23291;DHT22;11814;44.686;10.842;2023-04-23T12:54:40;25.00;61.40
23291;DHT22;11814;44.686;10.842;2023-04-23T12:57:10;24.80;61.70
23291;DHT22;11814;44.686;10.842;2023-04-23T12:59:37;24.80;61.90
23291;DHT22;11814;44.686;10.842;2023-04-23T13:02:03;24.90;61.80
23291;DHT22;11814;44.686;10.842;2023-04-23T13:04:33;24.80;61.70
23291;DHT22;11814;44.686;10.842;2023-04-23T13:06:59;24.80;61.80
23291;DHT22;11814;44.686;10.842;2023-04-23T13:09:25;24.90;62.30
23291;DHT22;11814;44.686;10.842;2023-04-23T13:11:52;24.90;62.60
23291;DHT22;11814;44.686;10.842;2023-04-23T13:14:18;24.90;62.50
23291;DHT22;11814;44.686;10.842;2023-04-23T13:16:45;24.90;62.70
23291;DHT22;11814;44.686;10.842;2023-04-23T13:19:10;25.00;62.90
23291;DHT22;11814;44.686;10.842;2023-04-23T13:21:38;25.00;62.60
23291;DHT22;11814;44.686;10.842;2023-04-23T13:24:04;25.00;62.40
23291;DHT22;11814;44.686;10.842;2023-04-23T13:26:30;25.10;62.30
23291;DHT22;11814;44.686;10.842;2023-04-23T13:29:00;25.10;62.60
23291;DHT22;11814;44.686;10.842;2023-04-23T13:31:27;25.20;62.50
23291;DHT22;11814;44.686;10.842;2023-04-23T13:33:53;25.20;62.30
23291;DHT22;11814;44.686;10.842;2023-04-23T13:36:19;25.20;62.10
23291;DHT22;11814;44.686;10.842;2023-04-23T13:38:45;25.30;62.20
23291;DHT22;11814;44.686;10.842;2023-04-23T13:41:11;25.30;62.10
23291;DHT22;11814;44.686;10.842;2023-04-23T13:43:36;25.30;62.20
23291;DHT22;11814;44.686;10.842;2023-04-23T13:46:02;25.30;62.40
23291;DHT22;11814;44.686;10.842;2023-04-23T13:48:28;25.30;62.40
23291;DHT22;11814;44.686;10.842;2023-04-23T13:50:59;25.30;62.50
23291;DHT22;11814;44.686;10.842;2023-04-23T13:53:26;25.30;62.50
23291;DHT22;11814;44.686;10.842;2023-04-23T13:55:56;25.40;62.70
23291;DHT22;11814;44.686;10.842;2023-04-23T13:58:22;25.40;62.20
23291;DHT22;11814;44.686;10.842;2023-04-23T14:00:48;25.40;61.70
23291;DHT22;11814;44.686;10.842;2023-04-23T14:03:14;25.40;61.40
23291;DHT22;11814;44.686;10.842;2023-04-23T14:05:40;25.40;61.30
23291;DHT22;11814;44.686;10.842;2023-04-23T14:08:05;25.50;61.50
23291;DHT22;11814;44.686;10.842;2023-04-23T14:10:32;25.60;61.20
23291;DHT22;11814;44.686;10.842;2023-04-23T14:12:58;25.50;60.90
23291;DHT22;11814;44.686;10.842;2023-04-23T14:15:24;25.50;60.80
23291;DHT22;11814;44.686;10.842;2023-04-23T14:17:49;25.50;61.00
23291;DHT22;11814;44.686;10.842;2023-04-23T14:20:15;25.50;60.90
23291;DHT22;11814;44.686;10.842;2023-04-23T14:22:42;25.40;61.00
23291;DHT22;11814;44.686;10.842;2023-04-23T14:25:13;25.40;61.40
23291;DHT22;11814;44.686;10.842;2023-04-23T14:27:44;25.40;61.20
23291;DHT22;11814;44.686;10.842;2023-04-23T14:30:16;25.50;61.70
23291;DHT22;11814;44.686;10.842;2023-04-23T14:32:43;25.60;62.00
23291;DHT22;11814;44.686;10.842;2023-04-23T14:35:14;25.60;61.50
23291;DHT22;11814;44.686;10.842;2023-04-23T14:37:41;25.70;61.20
23291;DHT22;11814;44.686;10.842;2023-04-23T14:40:12;25.70;61.20
23291;DHT22;11814;44.686;10.842;2023-04-23T14:42:47;25.70;60.60
23291;DHT22;11814;44.686;10.842;2023-04-23T14:45:15;25.60;60.50
23291;DHT22;11814;44.686;10.842;2023-04-23T14:47:42;25.60;60.50
23291;DHT22;11814;44.686;10.842;2023-04-23T14:50:15;25.60;60.40
23291;DHT22;11814;44.686;10.842;2023-04-23T14:52:42;25.40;60.10
23291;DHT22;11814;44.686;10.842;2023-04-23T14:55:11;25.40;60.20
23291;DHT22;11814;44.686;10.842;2023-04-23T14:57:37;25.30;60.40
23291;DHT22;11814;44.686;10.842;2023-04-23T15:00:04;25.30;60.80
23291;DHT22;11814;44.686;10.842;2023-04-23T15:02:30;25.20;60.90
23291;DHT22;11814;44.686;10.842;2023-04-23T15:04:57;25.10;61.00
23291;DHT22;11814;44.686;10.842;2023-04-23T15:07:22;25.10;61.40
23291;DHT22;11814;44.686;10.842;2023-04-23T15:09:48;25.10;61.40
23291;DHT22;11814;44.686;10.842;2023-04-23T15:15:27;25.20;61.20
23291;DHT22;11814;44.686;10.842;2023-04-23T15:17:59;25.30;61.00
23291;DHT22;11814;44.686;10.842;2023-04-23T15:20:25;25.30;61.20
23291;DHT22;11814;44.686;10.842;2023-04-23T15:22:51;25.20;61.20
23291;DHT22;11814;44.686;10.842;2023-04-23T15:25:16;25.20;61.20
23291;DHT22;11814;44.686;10.842;2023-04-23T15:27:43;25.10;61.20
23291;DHT22;11814;44.686;10.842;2023-04-23T15:30:10;25.00;61.40